sensor_id;sensor_type;location;lat;lon;timestamp;P1;durP1;ratioP1;P2;durP2;ratioP2
17955;SDS011;27666;51.498;11.966;2023-08-20T18:32:47;7.40;;;6.38;;
17955;SDS011;27666;51.498;11.966;2023-08-20T18:35:34;9.15;;;7.07;;
17955;SDS011;27666;51.498;11.966;2023-08-20T18:38:35;7.50;;;6.28;;
17955;SDS011;27666;51.498;11.966;2023-08-20T18:41:24;6.80;;;6.10;;
17955;SDS011;27666;51.498;11.966;2023-08-20T18:44:10;6.43;;;5.20;;
17955;SDS011;27666;51.498;11.966;2023-08-20T18:46:57;8.90;;;5.90;;
17955;SDS011;27666;51.498;11.966;2023-08-20T18:49:44;7.32;;;5.55;;
17955;SDS011;27666;51.498;11.966;2023-08-20T18:52:32;9.88;;;5.03;;
17955;SDS011;27666;51.498;11.966;2023-08-20T18:55:19;7.95;;;6.05;;
17955;SDS011;27666;51.498;11.966;2023-08-20T18:58:07;6.88;;;5.40;;
17955;SDS011;27666;51.498;11.966;2023-08-20T19:00:53;7.63;;;5.30;;
17955;SDS011;27666;51.498;11.966;2023-08-20T19:03:39;5.75;;;5.15;;
17955;SDS011;27666;51.498;11.966;2023-08-20T19:06:27;6.05;;;5.40;;
17955;SDS011;27666;51.498;11.966;2023-08-20T19:09:14;7.70;;;5.57;;
17955;SDS011;27666;51.498;11.966;2023-08-20T19:12:00;8.57;;;5.60;;
17955;SDS011;27666;51.498;11.966;2023-08-20T19:14:47;10.55;;;6.10;;
17955;SDS011;27666;51.498;11.966;2023-08-20T19:17:33;8.07;;;5.43;;
17955;SDS011;27666;51.498;11.966;2023-08-20T19:20:20;9.82;;;5.28;;
17955;SDS011;27666;51.498;11.966;2023-08-20T19:23:08;9.43;;;6.03;;
17955;SDS011;27666;51.498;11.966;2023-08-20T19:25:54;6.50;;;5.53;;
17955;SDS011;27666;51.498;11.966;2023-08-20T19:28:41;9.38;;;6.20;;
17955;SDS011;27666;51.498;11.966;2023-08-20T19:31:28;7.05;;;5.70;;
17955;SDS011;27666;51.498;11.966;2023-08-20T19:34:15;5.45;;;4.93;;
17955;SDS011;27666;51.498;11.966;2023-08-20T19:37:02;7.70;;;5.18;;
17955;SDS011;27666;51.498;11.966;2023-08-20T19:39:50;5.70;;;4.88;;
17955;SDS011;27666;51.498;11.966;2023-08-20T19:42:37;7.32;;;5.15;;
17955;SDS011;27666;51.498;11.966;2023-08-20T19:45:23;6.95;;;5.13;;
17955;SDS011;27666;51.498;11.966;2023-08-20T19:48:09;10.85;;;5.63;;
17955;SDS011;27666;51.498;11.966;2023-08-20T19:50:59;7.63;;;4.93;;
17955;SDS011;27666;51.498;11.966;2023-08-20T19:53:46;5.47;;;4.90;;
17955;SDS011;27666;51.498;11.966;2023-08-20T19:56:34;8.90;;;4.68;;
17955;SDS011;27666;51.498;11.966;2023-08-20T19:59:20;9.05;;;4.78;;
17955;SDS011;27666;51.498;11.966;2023-08-20T20:02:07;6.13;;;4.85;;
17955;SDS011;27666;51.498;11.966;2023-08-20T20:04:53;9.93;;;4.90;;
17955;SDS011;27666;51.498;11.966;2023-08-20T20:07:40;9.05;;;4.50;;
17955;SDS011;27666;51.498;11.966;2023-08-20T20:10:27;7.50;;;4.45;;
17955;SDS011;27666;51.498;11.966;2023-08-20T20:13:15;7.63;;;4.07;;
17955;SDS011;27666;51.498;11.966;2023-08-20T20:16:02;5.53;;;4.25;;
17955;SDS011;27666;51.498;11.966;2023-08-20T20:18:48;6.15;;;4.43;;
17955;SDS011;27666;51.498;11.966;2023-08-20T20:21:35;5.55;;;4.00;;
17955;SDS011;27666;51.498;11.966;2023-08-20T20:24:23;5.00;;;4.07;;
